Time;durP1;ratioP1;P1;durP2;ratioP2;P2;SDS_P1;SDS_P2;PMS_P1;PMS_P2;Temp;Humidity;BMP_temperature;BMP_pressure;BME280_temperature;BME280_humidity;BME280_pressure;Samples;Min_cycle;Max_cycle;Signal;HPM_P1;HPM_P2
2022/04/02 00:01:24;;;;;;;21.07;16.23;;;0.60;99.90;;;;;;5010824;28;20188;-76
2022/04/02 00:03:50;;;;;;;26.38;17.85;;;0.50;99.90;;;;;;5028575;28;20479;-75
2022/04/02 00:06:16;;;;;;;23.33;15.93;;;0.40;99.90;;;;;;5028972;28;20217;-78
2022/04/02 00:08:42;;;;;;;27.50;18.17;;;0.50;99.90;;;;;;5031037;28;20236;-79
2022/04/02 00:11:08;;;;;;;24.27;17.40;;;0.50;99.90;;;;;;5046119;28;20428;-79
2022/04/02 00:13:34;;;;;;;22.90;16.73;;;0.40;99.90;;;;;;5031380;28;20204;-79
2022/04/02 00:16:01;;;;;;;25.08;17.50;;;0.40;99.90;;;;;;5028434;28;20423;-78
2022/04/02 00:18:29;;;;;;;26.88;18.13;;;0.40;99.90;;;;;;5030157;28;20185;-78
2022/04/02 00:20:55;;;;;;;25.80;18.50;;;0.40;99.90;;;;;;5012969;28;20194;-79
2022/04/02 00:26:07;;;;;;;23.63;17.48;;;0.40;99.90;;;;;;5032053;28;20195;-76
2022/04/02 00:28:36;;;;;;;22.98;17.40;;;0.50;99.90;;;;;;5033025;28;20642;-76
2022/04/02 00:31:02;;;;;;;23.10;17.25;;;0.50;99.90;;;;;;5033095;28;20205;-76
2022/04/02 00:33:28;;;;;;;27.98;18.88;;;0.60;99.90;;;;;;5032124;28;20679;-76
2022/04/02 00:35:54;;;;;;;25.40;17.47;;;0.60;99.90;;;;;;5032032;28;20193;-75
2022/04/02 00:38:20;;;;;;;28.63;17.65;;;0.60;99.90;;;;;;5033845;28;20418;-74
2022/04/02 00:40:46;;;;;;;26.60;18.40;;;0.60;99.90;;;;;;5032541;28;20304;-74
2022/04/02 00:43:25;;;;;;;23.10;17.57;;;0.70;99.90;;;;;;5033824;28;20896;-75
2022/04/02 00:45:52;;;;;;;24.08;17.58;;;0.60;99.90;;;;;;5033653;28;20931;-75
2022/04/02 00:48:19;;;;;;;27.73;18.73;;;0.60;99.90;;;;;;5033315;28;20215;-75
2022/04/02 00:50:46;;;;;;;24.58;18.20;;;0.70;99.90;;;;;;5032869;28;20183;-75
2022/04/02 00:53:13;;;;;;;23.55;17.52;;;0.60;99.90;;;;;;5032762;28;20227;-75
2022/04/02 00:55:41;;;;;;;26.17;18.98;;;0.70;99.90;;;;;;5031641;28;20647;-75
2022/04/02 00:58:08;;;;;;;25.35;17.55;;;0.70;99.90;;;;;;5032744;28;20208;-75
2022/04/02 01:00:34;;;;;;;26.13;18.10;;;0.60;99.90;;;;;;5032421;28;20553;-74
2022/04/02 01:03:01;;;;;;;23.43;17.53;;;0.70;99.90;;;;;;5016939;28;20229;-74
2022/04/02 01:05:26;;;;;;;24.73;18.08;;;0.70;99.90;;;;;;5034346;28;20594;-74
2022/04/02 01:07:53;;;;;;;21.63;17.20;;;0.60;99.90;;;;;;5034035;28;20263;-74
2022/04/02 01:10:19;;;;;;;25.30;18.90;;;0.70;99.90;;;;;;5032272;28;20240;-77
2022/04/02 01:12:45;;;;;;;27.48;19.85;;;0.70;99.90;;;;;;5033304;28;20205;-78
2022/04/02 01:15:11;;;;;;;21.58;16.88;;;0.70;99.90;;;;;;5032495;28;21010;-79
2022/04/02 01:17:40;;;;;;;25.70;18.20;;;0.80;99.90;;;;;;5032522;28;20213;-79
2022/04/02 01:20:08;;;;;;;26.55;18.15;;;0.80;99.90;;;;;;5032470;28;20188;-79
2022/04/02 01:22:34;;;;;;;27.40;17.92;;;0.80;99.90;;;;;;5030965;28;20222;-79
2022/04/02 01:24:59;;;;;;;22.10;17.57;;;0.80;99.90;;;;;;5032073;28;20286;-78
2022/04/02 01:27:25;;;;;;;24.07;18.60;;;0.90;99.90;;;;;;5030807;28;20275;-78
2022/04/02 01:29:51;;;;;;;23.97;18.03;;;0.80;99.90;;;;;;5030498;28;20252;-78
2022/04/02 01:32:16;;;;;;;27.43;19.17;;;0.70;99.90;;;;;;5030169;28;21062;-74
2022/04/02 01:34:42;;;;;;;24.07;17.83;;;0.70;99.90;;;;;;5031050;28;20181;-76
2022/04/02 01:37:09;;;;;;;25.10;17.97;;;0.70;99.90;;;;;;5031078;28;20210;-76
2022/04/02 01:39:35;;;;;;;27.45;19.30;;;0.70;99.90;;;;;;5046279;28;20300;-77
2022/04/02 01:42:06;;;;;;;25.33;18.57;;;0.80;99.90;;;;;;5029698;28;20335;-76
2022/04/02 01:44:32;;;;;;;27.42;19.70;;;0.80;99.90;;;;;;5030285;28;20855;-76
2022/04/02 01:46:57;;;;;;;31.00;19.17;;;0.80;99.90;;;;;;5029657;28;20221;-77
2022/04/02 01:49:23;;;;;;;23.33;17.30;;;1.00;99.90;;;;;;5030782;28;20893;-74
2022/04/02 01:51:48;;;;;;;24.77;18.20;;;0.80;99.90;;;;;;5031020;28;20276;-77
2022/04/02 01:54:14;;;;;;;26.17;19.67;;;0.80;99.90;;;;;;5013183;28;20198;-75
2022/04/02 01:56:40;;;;;;;27.77;20.10;;;0.80;99.90;;;;;;5031552;28;20595;-75
2022/04/02 01:59:05;;;;;;;23.40;18.07;;;0.80;99.90;;;;;;5031503;28;20192;-76
2022/04/02 02:01:31;;;;;;;25.10;19.10;;;0.80;99.90;;;;;;5031233;28;20431;-76
2022/04/02 02:03:57;;;;;;;23.50;17.50;;;0.90;99.90;;;;;;5013084;28;20189;-76
2022/04/02 02:06:23;;;;;;;25.30;19.20;;;0.90;99.90;;;;;;5030931;28;20193;-76
2022/04/02 02:08:48;;;;;;;27.20;18.33;;;0.80;99.90;;;;;;5029163;28;20204;-75
2022/04/02 02:11:14;;;;;;;25.50;18.33;;;0.70;99.90;;;;;;5030519;28;20423;-76
2022/04/02 02:13:40;;;;;;;25.92;19.10;;;0.80;99.90;;;;;;5045535;28;20200;-76
2022/04/02 02:16:05;;;;;;;23.93;17.47;;;0.70;99.90;;;;;;5029023;28;20181;-76
2022/04/02 02:18:31;;;;;;;24.40;19.00;;;0.80;99.90;;;;;;5030335;28;20200;-76
2022/04/02 02:20:57;;;;;;;22.73;17.20;;;1.00;99.90;;;;;;5030301;28;20176;-76
2022/04/02 02:23:22;;;;;;;26.60;19.80;;;0.80;99.90;;;;;;5030110;28;20204;-76
2022/04/02 02:25:48;;;;;;;23.33;17.20;;;0.80;99.90;;;;;;5030049;28;20193;-76
2022/04/02 02:28:16;;;;;;;25.50;17.83;;;0.80;99.90;;;;;;5030126;28;20593;-76
2022/04/02 02:30:43;;;;;;;25.15;18.80;;;0.80;99.90;;;;;;5028459;28;20282;-76
2022/04/02 02:35:53;;;;;;;30.60;17.70;;;0.90;99.90;;;;;;5030298;28;20680;-77
2022/04/02 02:38:20;;;;;;;28.83;18.80;;;0.90;99.90;;;;;;5029841;28;20205;-77
2022/04/02 02:40:47;;;;;;;19.52;15.43;;;0.90;99.90;;;;;;5029731;28;20172;-77
2022/04/02 02:43:13;;;;;;;24.45;17.25;;;0.80;99.90;;;;;;5029598;28;20210;-76
2022/04/02 02:45:39;;;;;;;23.65;18.17;;;0.70;99.90;;;;;;5028198;28;20680;-76
2022/04/02 02:48:05;;;;;;;25.43;17.83;;;0.80;99.90;;;;;;5028803;28;20193;-76
2022/04/02 02:50:31;;;;;;;24.70;17.23;;;0.80;99.90;;;;;;5029577;28;20299;-76
2022/04/02 02:52:57;;;;;;;21.70;16.33;;;0.90;99.90;;;;;;5029366;28;20518;-76
2022/04/02 02:55:22;;;;;;;22.50;16.90;;;0.90;99.90;;;;;;5029398;28;20196;-76
2022/04/02 02:57:48;;;;;;;21.07;16.70;;;0.90;99.90;;;;;;5011540;28;20212;-76
2022/04/02 03:00:16;;;;;;;28.97;18.00;;;0.90;99.90;;;;;;5029508;28;20177;-76
2022/04/02 03:02:42;;;;;;;24.08;17.50;;;0.90;99.90;;;;;;5029250;28;20545;-76
2022/04/02 03:05:12;;;;;;;23.27;17.60;;;0.90;99.90;;;;;;5029238;28;20687;-77
2022/04/02 03:07:48;;;;;;;21.25;16.65;;;0.90;99.90;;;;;;5029309;28;20455;-76
2022/04/02 03:10:27;;;;;;;25.95;16.95;;;0.80;99.90;;;;;;5029176;28;20208;-75
2022/04/02 03:12:55;;;;;;;23.90;16.90;;;0.80;99.90;;;;;;5044419;28;20208;-76
2022/04/02 03:15:22;;;;;;;23.67;17.77;;;0.70;99.90;;;;;;5029090;28;20187;-75
2022/04/02 03:17:49;;;;;;;28.02;16.92;;;0.70;99.90;;;;;;5027855;28;20181;-75
2022/04/02 03:20:17;;;;;;;20.23;15.85;;;0.80;99.90;;;;;;5027782;28;20231;-75
2022/04/02 03:22:45;;;;;;;22.35;16.75;;;0.70;99.90;;;;;;5010957;28;20213;-73
2022/04/02 03:25:13;;;;;;;21.08;16.40;;;0.90;99.90;;;;;;5029034;28;20621;-78
2022/04/02 03:27:40;;;;;;;24.27;16.67;;;0.80;99.90;;;;;;5028946;28;20176;-74
2022/04/02 03:30:09;;;;;;;23.23;16.83;;;0.80;99.90;;;;;;5028762;28;20216;-74
2022/04/02 03:32:35;;;;;;;23.83;16.27;;;0.80;99.90;;;;;;5027344;28;20695;-74
2022/04/02 03:35:01;;;;;;;29.30;19.05;;;0.80;99.90;;;;;;5027342;28;20241;-74
2022/04/02 03:37:26;;;;;;;27.98;18.88;;;0.80;99.90;;;;;;5029108;28;20173;-74
2022/04/02 03:39:53;;;;;;;20.63;15.23;;;0.80;99.90;;;;;;5027355;28;20335;-74
2022/04/02 03:42:19;;;;;;;24.85;16.17;;;0.70;99.90;;;;;;5010848;28;20212;-73
2022/04/02 03:44:45;;;;;;;22.08;15.73;;;0.70;99.90;;;;;;5029056;28;20192;-73
2022/04/02 03:47:11;;;;;;;20.83;14.65;;;0.70;99.90;;;;;;5042685;28;20283;-73
2022/04/02 03:49:38;;;;;;;24.03;16.37;;;0.60;99.90;;;;;;5028873;28;20292;-73
2022/04/02 03:52:04;;;;;;;22.58;16.33;;;0.70;99.90;;;;;;5029717;28;20803;-73
2022/04/02 03:54:30;;;;;;;28.40;15.30;;;0.60;99.90;;;;;;5027436;28;20667;-73
2022/04/02 03:56:56;;;;;;;21.40;15.40;;;0.60;99.90;;;;;;5028911;28;20194;-74
2022/04/02 03:59:22;;;;;;;25.13;16.13;;;0.60;99.90;;;;;;5026782;28;20196;-74
2022/04/02 04:01:47;;;;;;;27.23;14.80;;;0.60;99.90;;;;;;5026892;28;20432;-74
2022/04/02 04:04:13;;;;;;;20.27;15.30;;;0.50;99.90;;;;;;5027020;28;20992;-75
2022/04/02 04:06:39;;;;;;;22.80;15.03;;;0.50;99.90;;;;;;5028459;28;20192;-74
2022/04/02 04:09:05;;;;;;;19.57;14.60;;;0.50;99.90;;;;;;5026790;28;20219;-74
2022/04/02 04:11:30;;;;;;;19.43;13.10;;;0.50;99.90;;;;;;5028589;28;20215;-74
2022/04/02 04:13:59;;;;;;;19.13;14.43;;;0.40;99.90;;;;;;5028482;28;20247;-74
2022/04/02 04:16:25;;;;;;;20.30;13.85;;;0.50;99.90;;;;;;5028331;28;20188;-74
2022/04/02 04:18:50;;;;;;;20.13;14.20;;;0.40;99.90;;;;;;5028460;28;20213;-73
2022/04/02 04:21:16;;;;;;;20.80;13.23;;;0.40;99.90;;;;;;5028336;28;20210;-73
2022/04/02 04:23:42;;;;;;;23.37;15.50;;;0.30;99.90;;;;;;5028210;28;20209;-74
2022/04/02 04:26:08;;;;;;;18.75;13.95;;;0.30;99.90;;;;;;5028254;28;20679;-74
2022/04/02 04:28:34;;;;;;;24.47;14.10;;;0.40;99.90;;;;;;5028528;28;20217;-75
2022/04/02 04:31:01;;;;;;;30.70;13.85;;;0.40;99.90;;;;;;5028219;28;20412;-74
2022/04/02 04:33:26;;;;;;;20.17;13.23;;;0.30;99.90;;;;;;5010140;28;20228;-75
2022/04/02 04:35:52;;;;;;;19.70;12.87;;;0.20;99.90;;;;;;5026952;28;20182;-75
2022/04/02 04:38:18;;;;;;;20.33;12.03;;;0.40;99.90;;;;;;5027959;28;20177;-75
2022/04/02 04:40:43;;;;;;;20.57;12.33;;;0.20;99.90;;;;;;5029300;28;20209;-77
2022/04/02 04:43:09;;;;;;;17.43;11.27;;;0.20;99.90;;;;;;5010361;28;20589;-77
2022/04/02 04:45:34;;;;;;;18.63;12.10;;;0.20;99.90;;;;;;5026837;28;20187;-81
2022/04/02 04:48:00;;;;;;;20.67;11.67;;;0.20;99.90;;;;;;5031811;28;20568;-78
2022/04/02 04:50:26;;;;;;;23.73;13.50;;;0.20;99.90;;;;;;5010597;28;20227;-73
2022/04/02 04:52:52;;;;;;;24.95;12.52;;;0.20;99.90;;;;;;5028120;28;20205;-74
2022/04/02 04:55:18;;;;;;;31.67;12.97;;;0.20;99.90;;;;;;5043213;28;20188;-74
2022/04/02 04:57:44;;;;;;;24.83;11.53;;;0.30;99.90;;;;;;5026677;28;20189;-74
2022/04/02 05:00:10;;;;;;;22.77;12.27;;;0.20;99.90;;;;;;5043237;28;20192;-75
2022/04/02 05:02:36;;;;;;;25.67;12.15;;;0.20;99.90;;;;;;5026847;28;20204;-73
2022/04/02 05:05:02;;;;;;;22.07;10.50;;;0.20;99.90;;;;;;5029077;28;20195;-73
2022/04/02 05:07:28;;;;;;;24.43;11.10;;;0.20;99.90;;;;;;5028873;28;20184;-73
2022/04/02 05:09:54;;;;;;;14.77;9.98;;;0.30;99.90;;;;;;5028682;28;20315;-73
2022/04/02 05:12:20;;;;;;;16.33;10.77;;;0.30;99.90;;;;;;5032721;28;20749;-73
2022/04/02 05:14:46;;;;;;;24.50;10.70;;;0.30;99.90;;;;;;5047685;28;20429;-73
2022/04/02 05:17:12;;;;;;;20.08;12.00;;;0.20;99.90;;;;;;5047495;28;20531;-73
2022/04/02 05:19:38;;;;;;;20.70;11.37;;;0.30;99.90;;;;;;5032429;28;20291;-73
2022/04/02 05:22:04;;;;;;;20.20;11.90;;;0.40;99.90;;;;;;5013774;28;20214;-73
2022/04/02 05:24:30;;;;;;;25.97;13.57;;;0.30;99.90;;;;;;5031976;28;20246;-74
2022/04/02 05:26:56;;;;;;;25.38;13.55;;;0.40;99.90;;;;;;5047521;28;20436;-74
2022/04/02 05:29:22;;;;;;;19.93;13.03;;;0.40;99.90;;;;;;5032174;28;20913;-74
2022/04/02 05:31:48;;;;;;;22.83;14.30;;;0.40;99.90;;;;;;5031972;28;20184;-74
2022/04/02 05:34:14;;;;;;;34.75;14.55;;;0.30;99.90;;;;;;5047103;28;20287;-74
2022/04/02 05:36:41;;;;;;;24.63;14.80;;;0.40;99.90;;;;;;5032101;28;20275;-74
2022/04/02 05:39:07;;;;;;;28.13;15.77;;;0.40;99.90;;;;;;5031750;28;20216;-74
2022/04/02 05:41:32;;;;;;;29.57;15.90;;;0.40;99.90;;;;;;5046995;28;20222;-74
2022/04/02 05:43:58;;;;;;;23.73;15.90;;;0.30;99.90;;;;;;5031569;28;20271;-74
2022/04/02 05:46:24;;;;;;;25.70;15.00;;;0.30;99.90;;;;;;5046544;28;20235;-73
2022/04/02 05:48:49;;;;;;;20.30;13.77;;;0.30;99.90;;;;;;5031219;28;20212;-74
2022/04/02 05:51:15;;;;;;;23.60;12.13;;;0.30;99.90;;;;;;5031582;28;20654;-73
2022/04/02 05:53:41;;;;;;;16.63;12.17;;;0.30;99.90;;;;;;5029927;28;20715;-74
2022/04/02 05:56:07;;;;;;;15.60;10.60;;;0.20;99.90;;;;;;5031493;28;20533;-74
2022/04/02 05:58:32;;;;;;;21.73;11.57;;;0.20;99.90;;;;;;5029893;28;20181;-74
2022/04/02 06:00:58;;;;;;;17.33;11.00;;;0.10;99.90;;;;;;4996684;28;20192;-74
2022/04/02 06:03:24;;;;;;;18.67;11.50;;;0.10;99.90;;;;;;5029428;28;20257;-73
2022/04/02 06:05:50;;;;;;;20.90;11.50;;;0.10;99.90;;;;;;5030734;28;20243;-74
2022/04/02 06:08:16;;;;;;;17.95;11.30;;;0.10;99.90;;;;;;5030592;28;20210;-74
2022/04/02 06:10:44;;;;;;;23.30;12.00;;;0.10;99.90;;;;;;5030669;28;20287;-74
2022/04/02 06:13:10;;;;;;;19.65;10.95;;;0.10;99.90;;;;;;5030269;28;20512;-74
2022/04/02 06:15:36;;;;;;;17.50;11.10;;;0.20;99.90;;;;;;5030328;28;20632;-74
2022/04/02 06:18:02;;;;;;;22.90;10.20;;;0.20;99.90;;;;;;5028967;28;20442;-74
2022/04/02 06:20:28;;;;;;;22.23;11.05;;;0.30;99.90;;;;;;5045536;28;20674;-74
2022/04/02 06:22:54;;;;;;;15.10;10.90;;;0.30;99.90;;;;;;5028746;28;20725;-74
2022/04/02 06:25:20;;;;;;;16.03;9.67;;;0.40;99.90;;;;;;5028711;28;20192;-74
2022/04/02 06:27:47;;;;;;;16.23;9.10;;;0.40;99.90;;;;;;5030141;28;20193;-74
2022/04/02 06:30:17;;;;;;;16.35;9.75;;;0.30;99.90;;;;;;5045286;28;20983;-74
2022/04/02 06:32:43;;;;;;;15.15;9.20;;;0.40;99.90;;;;;;5030000;28;20214;-74
2022/04/02 06:35:09;;;;;;;13.07;8.55;;;0.40;99.90;;;;;;5029991;28;20235;-74
2022/04/02 06:37:37;;;;;;;13.45;10.10;;;0.40;99.90;;;;;;5029996;28;20650;-75
2022/04/02 06:40:04;;;;;;;13.68;9.52;;;0.30;99.90;;;;;;5029878;28;20243;-75
2022/04/02 06:42:31;;;;;;;11.30;9.00;;;0.40;99.90;;;;;;5029697;28;20384;-75
2022/04/02 06:44:56;;;;;;;17.70;8.90;;;0.30;99.90;;;;;;5029742;28;20192;-75
2022/04/02 06:47:30;;;;;;;21.87;10.20;;;0.40;99.90;;;;;;5028102;28;20270;-75
2022/04/02 06:49:56;;;;;;;12.68;9.18;;;0.40;99.90;;;;;;5028091;28;20212;-75
2022/04/02 06:52:23;;;;;;;12.40;9.23;;;0.40;99.90;;;;;;5028921;28;20216;-75
2022/04/02 06:54:49;;;;;;;15.00;9.90;;;0.50;99.90;;;;;;5028020;28;20440;-75
2022/04/02 06:57:22;;;;;;;10.60;8.98;;;0.50;99.90;;;;;;5043036;28;20184;-75
2022/04/02 06:59:48;;;;;;;13.68;9.73;;;0.50;99.90;;;;;;5027810;28;20529;-75
2022/04/02 07:02:15;;;;;;;15.10;11.25;;;0.60;99.90;;;;;;5026198;28;20212;-75
2022/04/02 07:04:42;;;;;;;13.18;10.40;;;0.60;99.90;;;;;;5026509;28;20189;-75
2022/04/02 07:07:08;;;;;;;12.88;9.30;;;0.60;99.90;;;;;;5010564;28;20240;-75
2022/04/02 07:09:35;;;;;;;13.77;9.65;;;0.60;99.90;;;;;;5028154;28;20215;-74
2022/04/02 07:12:00;;;;;;;13.73;10.25;;;0.60;99.90;;;;;;5028194;28;20207;-74
2022/04/02 07:14:26;;;;;;;14.50;10.40;;;0.60;99.90;;;;;;5027066;28;20293;-74
2022/04/02 07:16:51;;;;;;;17.10;12.67;;;0.60;99.90;;;;;;5043389;28;20235;-74
2022/04/02 07:19:21;;;;;;;18.00;10.73;;;0.60;99.90;;;;;;5028371;28;20198;-74
2022/04/02 07:21:47;;;;;;;14.68;11.60;;;0.60;99.90;;;;;;5028367;28;20238;-75
2022/04/02 07:24:16;;;;;;;13.25;10.27;;;0.60;99.90;;;;;;5028168;28;20192;-74
2022/04/02 07:26:45;;;;;;;13.73;11.25;;;0.70;99.90;;;;;;5028329;28;20184;-74
2022/04/02 07:29:15;;;;;;;14.32;10.15;;;0.80;99.90;;;;;;5010884;28;21047;-74
2022/04/02 07:31:44;;;;;;;12.68;10.45;;;0.70;99.90;;;;;;5026658;28;20202;-74
2022/04/02 07:34:11;;;;;;;15.82;11.60;;;0.80;99.90;;;;;;5027653;28;20188;-74
2022/04/02 07:36:55;;;;;;;12.93;10.40;;;0.70;99.90;;;;;;5026601;28;20275;-74
2022/04/02 07:39:46;;;;;;;15.05;10.23;;;0.70;99.90;;;;;;5027910;28;20195;-74
2022/04/02 07:42:23;;;;;;;10.35;9.25;;;0.80;99.90;;;;;;5043294;28;20303;-74
2022/04/02 07:45:11;;;;;;;13.13;9.80;;;0.90;99.90;;;;;;5028174;28;20879;-74
2022/04/02 07:47:48;;;;;;;10.20;9.15;;;0.90;99.90;;;;;;5028560;28;20223;-75
2022/04/02 07:50:15;;;;;;;12.95;9.40;;;0.90;99.90;;;;;;5042518;28;20222;-75
2022/04/02 07:52:45;;;;;;;11.82;9.20;;;0.80;99.90;;;;;;5027210;28;20678;-75
2022/04/02 07:55:12;;;;;;;9.45;8.05;;;0.80;99.90;;;;;;5042415;28;20182;-75
2022/04/02 07:57:45;;;;;;;12.80;9.95;;;0.90;99.90;;;;;;5027296;28;20182;-74
2022/04/02 08:00:12;;;;;;;12.77;8.77;;;0.90;99.90;;;;;;5042565;28;20189;-74
2022/04/02 08:02:45;;;;;;;12.05;8.80;;;0.90;99.90;;;;;;5027457;28;20204;-74
2022/04/02 08:05:19;;;;;;;9.32;8.43;;;0.90;99.90;;;;;;5026447;28;20191;-75
2022/04/02 08:07:49;;;;;;;9.48;8.45;;;0.80;99.90;;;;;;5027705;28;20180;-74
2022/04/02 08:10:18;;;;;;;10.50;8.50;;;0.90;99.90;;;;;;5042889;28;20222;-74
2022/04/02 08:12:44;;;;;;;9.90;8.20;;;0.90;99.90;;;;;;5026922;28;20356;-74
2022/04/02 08:15:18;;;;;;;15.90;8.88;;;1.00;99.90;;;;;;5043891;28;20720;-75
2022/04/02 08:17:54;;;;;;;9.35;7.90;;;1.00;99.90;;;;;;5028674;28;20188;-74
2022/04/02 08:20:22;;;;;;;9.70;7.10;;;0.90;99.90;;;;;;5043714;28;20563;-74
2022/04/02 08:22:48;;;;;;;9.02;7.90;;;0.90;99.90;;;;;;5028498;28;20300;-74
2022/04/02 08:25:14;;;;;;;12.60;7.95;;;0.90;99.90;;;;;;5026912;28;20228;-75
2022/04/02 08:27:46;;;;;;;14.80;10.32;;;0.90;99.90;;;;;;5026871;28;20189;-75
2022/04/02 08:30:17;;;;;;;15.98;9.93;;;1.00;99.90;;;;;;5027871;28;20250;-75
2022/04/02 08:33:05;;;;;;;8.73;7.50;;;1.00;99.90;;;;;;5027432;28;20246;-74
2022/04/02 08:36:07;;;;;;;10.50;8.95;;;1.00;99.90;;;;;;5027553;28;20553;-75
2022/04/02 08:39:10;;;;;;;9.27;7.57;;;1.00;99.90;;;;;;5027454;28;20182;-74
2022/04/02 08:42:35;;;;;;;14.32;9.88;;;1.00;99.90;;;;;;5027495;28;20255;-75
2022/04/02 08:45:00;;;;;;;8.07;7.00;;;1.10;99.90;;;;;;5004701;28;20279;-75
2022/04/02 08:47:29;;;;;;;10.93;8.00;;;1.10;99.90;;;;;;5031280;28;20256;-74
2022/04/02 08:50:10;;;;;;;10.93;9.45;;;1.10;99.90;;;;;;5031419;28;20224;-75
2022/04/02 08:52:52;;;;;;;13.48;10.05;;;1.10;99.90;;;;;;5029931;28;20751;-76
2022/04/02 08:55:36;;;;;;;13.20;8.45;;;1.10;99.90;;;;;;5031263;28;20186;-74
2022/04/02 08:58:08;;;;;;;11.07;9.18;;;1.10;99.90;;;;;;5031067;28;20178;-74
2022/04/02 09:01:07;;;;;;;13.25;9.63;;;1.10;99.90;;;;;;5031079;28;20191;-74
2022/04/02 09:03:57;;;;;;;11.32;9.45;;;1.10;99.90;;;;;;5046101;28;20251;-74
2022/04/02 09:07:11;;;;;;;11.75;8.82;;;1.10;99.90;;;;;;5045910;28;20197;-74
2022/04/02 09:10:05;;;;;;;9.40;7.85;;;1.00;99.90;;;;;;5027997;28;20221;-74
2022/04/02 09:12:37;;;;;;;11.07;8.80;;;0.90;99.90;;;;;;5030575;28;20226;-74
2022/04/02 09:15:13;;;;;;;13.93;8.38;;;0.90;99.90;;;;;;5045997;28;20545;-74
2022/04/02 09:18:05;;;;;;;15.05;8.75;;;0.90;99.90;;;;;;5030280;28;20218;-74
2022/04/02 09:20:42;;;;;;;8.85;7.93;;;0.90;99.90;;;;;;5045388;28;20717;-74
2022/04/02 09:23:23;;;;;;;9.18;8.27;;;0.80;99.90;;;;;;5030295;28;20291;-74
2022/04/02 09:26:19;;;;;;;13.07;8.27;;;0.90;99.90;;;;;;5030571;28;20174;-74
2022/04/02 09:28:54;;;;;;;11.80;9.48;;;0.90;99.90;;;;;;5031832;28;20194;-74
2022/04/02 09:31:28;;;;;;;17.23;9.88;;;1.00;99.90;;;;;;5047035;28;20187;-73
2022/04/02 09:34:31;;;;;;;10.27;8.38;;;1.20;99.90;;;;;;5032021;28;20303;-73
2022/04/02 09:37:15;;;;;;;8.73;7.88;;;1.20;99.90;;;;;;5031650;28;20196;-74
2022/04/02 09:40:06;;;;;;;12.40;9.57;;;1.20;99.90;;;;;;5047013;28;20199;-74
2022/04/02 09:42:37;;;;;;;9.95;9.00;;;1.20;99.90;;;;;;5039433;28;20209;-73
2022/04/02 09:45:13;;;;;;;10.82;7.15;;;1.20;99.90;;;;;;5033900;28;20185;-73
2022/04/02 09:47:42;;;;;;;9.73;8.13;;;1.20;99.90;;;;;;5046052;28;20201;-74
2022/04/02 09:50:08;;;;;;;9.25;7.80;;;1.20;99.90;;;;;;5030780;28;20212;-74
2022/04/02 09:52:56;;;;;;;15.65;8.73;;;1.20;99.90;;;;;;5045494;28;20295;-74
2022/04/02 09:55:28;;;;;;;13.38;8.55;;;1.30;99.90;;;;;;5028982;28;20181;-75
2022/04/02 09:58:08;;;;;;;10.52;7.82;;;1.40;99.90;;;;;;5028189;28;20232;-75
2022/04/02 10:00:59;;;;;;;12.50;8.20;;;1.40;99.90;;;;;;5029916;28;20565;-74
2022/04/02 10:03:51;;;;;;;9.98;8.02;;;1.40;99.90;;;;;;5029829;28;20205;-74
2022/04/02 10:06:27;;;;;;;9.23;8.32;;;1.40;99.90;;;;;;5029715;28;20208;-74
2022/04/02 10:09:03;;;;;;;10.20;8.85;;;1.40;99.90;;;;;;5044782;28;20997;-74
2022/04/02 10:11:30;;;;;;;8.95;8.05;;;1.50;99.90;;;;;;5029442;28;20176;-74
2022/04/02 10:14:01;;;;;;;14.00;8.60;;;1.50;99.90;;;;;;5027643;28;20550;-74
2022/04/02 10:16:28;;;;;;;11.63;9.38;;;1.60;99.90;;;;;;5029456;28;20654;-74
2022/04/02 10:18:56;;;;;;;11.88;7.82;;;1.60;99.90;;;;;;5029526;28;20229;-74
2022/04/02 10:21:22;;;;;;;12.25;8.80;;;1.60;99.90;;;;;;5029078;28;20192;-74
2022/04/02 10:23:53;;;;;;;13.55;10.43;;;1.70;99.90;;;;;;5043964;28;20212;-74
2022/04/02 10:26:23;;;;;;;11.10;9.15;;;1.80;99.90;;;;;;5027385;28;20180;-74
2022/04/02 10:29:01;;;;;;;12.52;9.68;;;1.90;99.90;;;;;;5028766;28;20216;-74
2022/04/02 10:31:36;;;;;;;13.60;9.05;;;2.10;99.90;;;;;;5028754;28;20177;-74
2022/04/02 10:34:16;;;;;;;10.25;8.95;;;2.20;99.90;;;;;;5027025;28;20669;-74
2022/04/02 10:36:50;;;;;;;10.32;8.00;;;2.30;99.90;;;;;;5029095;28;20185;-75
2022/04/02 10:39:18;;;;;;;9.13;8.05;;;2.40;99.90;;;;;;5028750;28;20659;-75
2022/04/02 10:41:46;;;;;;;11.02;9.68;;;2.60;99.90;;;;;;5028755;28;20208;-75
2022/04/02 10:44:44;;;;;;;18.95;9.88;;;2.70;99.90;;;;;;5028987;28;20194;-75
2022/04/02 10:47:12;;;;;;;11.13;9.63;;;2.70;99.90;;;;;;5027315;28;20607;-75
2022/04/02 10:49:42;;;;;;;12.65;9.95;;;2.60;99.90;;;;;;5027775;28;20756;-75
2022/04/02 10:52:11;;;;;;;9.90;8.90;;;2.60;99.90;;;;;;5044126;28;20202;-75
2022/04/02 10:54:39;;;;;;;10.50;8.90;;;2.40;99.90;;;;;;5043829;28;20191;-75
2022/04/02 10:57:05;;;;;;;11.80;8.57;;;2.20;99.90;;;;;;5043870;28;20701;-75
2022/04/02 10:59:32;;;;;;;12.90;8.60;;;2.10;99.90;;;;;;5028762;28;20443;-75
2022/04/02 11:02:01;;;;;;;14.40;10.30;;;2.10;99.90;;;;;;5026909;28;20488;-75
2022/04/02 11:04:30;;;;;;;11.90;9.10;;;2.10;99.90;;;;;;5026944;28;20190;-75
2022/04/02 11:06:57;;;;;;;12.52;9.43;;;2.10;99.90;;;;;;5028259;28;20729;-75
2022/04/02 11:09:28;;;;;;;10.10;8.80;;;2.00;99.90;;;;;;5042332;28;20218;-75
2022/04/02 11:11:57;;;;;;;12.13;8.80;;;2.10;99.90;;;;;;5043103;28;20209;-75
2022/04/02 11:14:24;;;;;;;11.68;9.85;;;2.10;99.90;;;;;;5043225;28;20193;-74
2022/04/02 11:16:49;;;;;;;9.55;8.45;;;2.00;99.90;;;;;;5027755;28;20183;-75
2022/04/02 11:22:06;;;;;;;9.23;8.13;;;2.00;99.90;;;;;;5028113;28;20211;-75
2022/04/02 11:24:51;;;;;;;9.70;8.70;;;2.20;99.90;;;;;;5028420;28;20552;-75
2022/04/02 11:27:18;;;;;;;9.00;8.10;;;2.40;99.90;;;;;;5028367;28;20186;-75
2022/04/02 11:29:50;;;;;;;11.68;8.57;;;2.40;99.90;;;;;;5044247;28;20279;-75
2022/04/02 11:32:24;;;;;;;10.38;8.18;;;2.40;99.90;;;;;;5027216;28;20238;-75
2022/04/02 11:34:51;;;;;;;8.45;7.75;;;2.70;99.90;;;;;;5026941;28;20218;-74
2022/04/02 11:37:31;;;;;;;10.25;8.73;;;2.30;99.90;;;;;;5028606;28;20271;-74
2022/04/02 11:40:04;;;;;;;9.45;8.45;;;2.20;99.90;;;;;;5028936;28;20186;-75
2022/04/02 11:42:34;;;;;;;9.93;8.13;;;2.30;99.90;;;;;;5028126;28;20225;-75
2022/04/02 11:45:05;;;;;;;10.75;7.97;;;2.40;99.90;;;;;;5027652;28;20272;-75
2022/04/02 11:47:34;;;;;;;13.38;9.68;;;2.50;99.90;;;;;;5025724;28;20717;-75
2022/04/02 11:50:07;;;;;;;15.40;11.37;;;2.60;99.90;;;;;;5042107;28;20392;-75
2022/04/02 11:52:57;;;;;;;11.63;8.95;;;2.60;99.90;;;;;;5026722;28;20934;-75
2022/04/02 11:55:27;;;;;;;13.25;9.32;;;2.60;99.90;;;;;;5027228;28;20183;-75
2022/04/02 11:58:04;;;;;;;12.13;9.10;;;2.70;99.90;;;;;;5042287;28;20186;-75
2022/04/02 12:00:38;;;;;;;13.48;10.88;;;2.70;99.90;;;;;;5027183;28;20933;-75
2022/04/02 12:03:19;;;;;;;10.93;9.40;;;2.50;99.90;;;;;;5027412;28;20216;-75
2022/04/02 12:05:47;;;;;;;10.25;8.45;;;2.60;99.90;;;;;;5025923;28;21072;-75
2022/04/02 12:08:29;;;;;;;10.70;9.48;;;2.60;99.90;;;;;;5027666;28;20195;-75
2022/04/02 12:10:56;;;;;;;10.03;8.97;;;2.70;99.90;;;;;;5042493;28;20214;-75
2022/04/02 12:13:21;;;;;;;9.98;8.95;;;2.80;99.90;;;;;;5042783;28;21061;-75
2022/04/02 12:16:13;;;;;;;12.30;9.90;;;2.90;99.90;;;;;;5026264;28;20279;-75
2022/04/02 12:18:57;;;;;;;10.98;9.50;;;2.70;99.90;;;;;;5027833;28;20480;-75
2022/04/02 12:21:37;;;;;;;12.65;10.05;;;2.60;99.90;;;;;;5032160;28;20182;-75
2022/04/02 12:24:04;;;;;;;10.15;9.02;;;2.60;99.90;;;;;;5030970;28;20609;-75
2022/04/02 12:26:30;;;;;;;10.23;9.23;;;2.60;99.90;;;;;;5030825;28;20278;-75
2022/04/02 12:28:58;;;;;;;11.45;9.90;;;2.40;99.90;;;;;;5032163;28;20691;-75
2022/04/02 12:31:30;;;;;;;12.60;11.00;;;2.40;99.90;;;;;;5047041;28;20294;-75
2022/04/02 12:33:57;;;;;;;11.07;9.25;;;2.50;99.90;;;;;;5030338;28;20683;-74
2022/04/02 12:36:34;;;;;;;11.48;9.32;;;2.50;99.90;;;;;;5046650;28;20192;-74
2022/04/02 12:39:05;;;;;;;14.10;10.55;;;2.40;99.90;;;;;;5031332;28;20186;-74
2022/04/02 12:41:32;;;;;;;12.88;11.30;;;2.50;99.90;;;;;;5029872;28;20199;-75
2022/04/02 12:44:03;;;;;;;9.80;8.77;;;2.50;99.90;;;;;;5031099;28;20225;-75
2022/04/02 12:46:29;;;;;;;12.43;9.45;;;2.60;99.90;;;;;;5046310;28;20432;-75
2022/04/02 12:48:56;;;;;;;13.75;11.05;;;2.50;99.90;;;;;;5046564;28;20224;-75
2022/04/02 12:51:23;;;;;;;14.05;10.50;;;2.30;99.90;;;;;;5030938;28;20198;-74
2022/04/02 12:53:58;;;;;;;13.50;10.55;;;2.30;99.90;;;;;;5030246;28;20206;-75
2022/04/02 12:56:27;;;;;;;13.68;10.88;;;2.00;99.90;;;;;;5030596;28;20179;-75
2022/04/02 12:58:54;;;;;;;13.75;10.57;;;1.70;99.90;;;;;;5030321;28;20612;-75
2022/04/02 13:01:20;;;;;;;14.25;10.90;;;1.60;99.90;;;;;;5030042;28;20558;-75
2022/04/02 13:03:54;;;;;;;12.43;10.90;;;1.60;99.90;;;;;;5030099;28;20207;-75